sensor_id;sensor_type;location;lat;lon;timestamp;temperature;humidity
72646;DHT22;60687;53.876;10.674;2024-02-15T00:03:58;10.70;99.90
72646;DHT22;60687;53.876;10.674;2024-02-15T00:14:06;10.70;99.90
72646;DHT22;60687;53.876;10.674;2024-02-15T00:24:12;10.70;99.90
72646;DHT22;60687;53.876;10.674;2024-02-15T00:34:23;10.70;99.90
72646;DHT22;60687;53.876;10.674;2024-02-15T00:44:38;10.70;99.90
72646;DHT22;60687;53.876;10.674;2024-02-15T00:54:56;10.70;99.90
72646;DHT22;60687;53.876;10.674;2024-02-15T01:05:02;10.70;99.90
72646;DHT22;60687;53.876;10.674;2024-02-15T01:15:12;10.70;99.90
72646;DHT22;60687;53.876;10.674;2024-02-15T01:25:18;10.70;99.90
72646;DHT22;60687;53.876;10.674;2024-02-15T01:35:25;10.70;99.90
72646;DHT22;60687;53.876;10.674;2024-02-15T01:45:28;10.70;99.90
72646;DHT22;60687;53.876;10.674;2024-02-15T01:55:33;10.70;99.90
72646;DHT22;60687;53.876;10.674;2024-02-15T02:05:36;10.70;99.90
72646;DHT22;60687;53.876;10.674;2024-02-15T02:15:40;10.70;99.90
72646;DHT22;60687;53.876;10.674;2024-02-15T02:25:44;10.70;99.90
72646;DHT22;60687;53.876;10.674;2024-02-15T02:35:51;10.80;99.90
72646;DHT22;60687;53.876;10.674;2024-02-15T02:46:00;10.80;99.90
72646;DHT22;60687;53.876;10.674;2024-02-15T02:56:06;10.80;99.90
72646;DHT22;60687;53.876;10.674;2024-02-15T03:06:16;10.90;99.90
72646;DHT22;60687;53.876;10.674;2024-02-15T03:16:22;10.90;99.90
72646;DHT22;60687;53.876;10.674;2024-02-15T03:26:31;10.90;99.90
72646;DHT22;60687;53.876;10.674;2024-02-15T03:36:39;10.90;99.90
72646;DHT22;60687;53.876;10.674;2024-02-15T03:46:43;10.90;99.90
72646;DHT22;60687;53.876;10.674;2024-02-15T03:56:52;11.00;99.90
72646;DHT22;60687;53.876;10.674;2024-02-15T04:06:57;11.00;99.90
72646;DHT22;60687;53.876;10.674;2024-02-15T04:16:59;11.00;99.90
72646;DHT22;60687;53.876;10.674;2024-02-15T04:27:04;11.00;99.90
72646;DHT22;60687;53.876;10.674;2024-02-15T04:37:08;11.10;99.90
72646;DHT22;60687;53.876;10.674;2024-02-15T04:47:13;11.00;99.90
72646;DHT22;60687;53.876;10.674;2024-02-15T04:57:15;11.00;99.90
72646;DHT22;60687;53.876;10.674;2024-02-15T05:07:20;11.10;99.90
72646;DHT22;60687;53.876;10.674;2024-02-15T05:17:23;11.10;99.90
72646;DHT22;60687;53.876;10.674;2024-02-15T05:27:30;11.10;99.90
72646;DHT22;60687;53.876;10.674;2024-02-15T05:37:32;11.10;99.90
72646;DHT22;60687;53.876;10.674;2024-02-15T05:47:37;11.10;99.90
72646;DHT22;60687;53.876;10.674;2024-02-15T05:57:42;11.10;99.90
72646;DHT22;60687;53.876;10.674;2024-02-15T06:07:45;11.20;99.90
72646;DHT22;60687;53.876;10.674;2024-02-15T06:17:49;11.10;99.90
72646;DHT22;60687;53.876;10.674;2024-02-15T06:27:53;11.20;99.90
72646;DHT22;60687;53.876;10.674;2024-02-15T06:38:04;11.20;99.90
72646;DHT22;60687;53.876;10.674;2024-02-15T06:48:26;11.20;99.90
72646;DHT22;60687;53.876;10.674;2024-02-15T06:58:28;11.20;99.90
72646;DHT22;60687;53.876;10.674;2024-02-15T07:08:32;11.30;99.90
72646;DHT22;60687;53.876;10.674;2024-02-15T07:18:35;11.30;99.90
72646;DHT22;60687;53.876;10.674;2024-02-15T07:28:39;11.30;99.90
72646;DHT22;60687;53.876;10.674;2024-02-15T07:38:42;11.30;99.90
72646;DHT22;60687;53.876;10.674;2024-02-15T07:48:48;11.30;99.90
72646;DHT22;60687;53.876;10.674;2024-02-15T07:58:51;11.30;99.90
72646;DHT22;60687;53.876;10.674;2024-02-15T08:08:56;11.40;99.90
72646;DHT22;60687;53.876;10.674;2024-02-15T08:18:58;11.40;99.90
72646;DHT22;60687;53.876;10.674;2024-02-15T08:29:03;11.50;99.90
72646;DHT22;60687;53.876;10.674;2024-02-15T08:39:06;11.50;99.90
72646;DHT22;60687;53.876;10.674;2024-02-15T08:49:14;11.50;99.90
72646;DHT22;60687;53.876;10.674;2024-02-15T08:59:16;11.50;99.90
72646;DHT22;60687;53.876;10.674;2024-02-15T09:09:28;11.60;99.90
72646;DHT22;60687;53.876;10.674;2024-02-15T09:19:33;11.70;99.90
72646;DHT22;60687;53.876;10.674;2024-02-15T09:29:40;11.70;99.90
72646;DHT22;60687;53.876;10.674;2024-02-15T09:39:56;11.80;99.90
72646;DHT22;60687;53.876;10.674;2024-02-15T09:50:20;11.90;99.90
72646;DHT22;60687;53.876;10.674;2024-02-15T10:00:41;12.00;99.90
72646;DHT22;60687;53.876;10.674;2024-02-15T10:11:05;12.00;99.90
72646;DHT22;60687;53.876;10.674;2024-02-15T11:07:49;12.30;99.90
72646;DHT22;60687;53.876;10.674;2024-02-15T11:30:34;12.40;99.90
72646;DHT22;60687;53.876;10.674;2024-02-15T12:50:30;12.70;99.90
72646;DHT22;60687;53.876;10.674;2024-02-15T13:00:56;12.80;99.90
72646;DHT22;60687;53.876;10.674;2024-02-15T13:33:04;12.80;99.90
72646;DHT22;60687;53.876;10.674;2024-02-15T13:43:09;12.80;99.90
72646;DHT22;60687;53.876;10.674;2024-02-15T13:53:16;12.80;99.90
72646;DHT22;60687;53.876;10.674;2024-02-15T14:03:22;12.80;99.90
72646;DHT22;60687;53.876;10.674;2024-02-15T14:13:30;12.80;99.90
72646;DHT22;60687;53.876;10.674;2024-02-15T14:23:34;12.70;99.90
72646;DHT22;60687;53.876;10.674;2024-02-15T14:33:42;12.70;99.90
72646;DHT22;60687;53.876;10.674;2024-02-15T14:44:02;12.70;99.90
72646;DHT22;60687;53.876;10.674;2024-02-15T14:54:16;12.70;99.90
72646;DHT22;60687;53.876;10.674;2024-02-15T15:04:21;12.70;99.90
72646;DHT22;60687;53.876;10.674;2024-02-15T15:14:52;12.70;99.90
72646;DHT22;60687;53.876;10.674;2024-02-15T15:25:20;12.60;99.90
72646;DHT22;60687;53.876;10.674;2024-02-15T15:35:58;12.60;99.90
72646;DHT22;60687;53.876;10.674;2024-02-15T15:46:32;12.60;99.90
72646;DHT22;60687;53.876;10.674;2024-02-15T15:57:15;12.60;99.90
72646;DHT22;60687;53.876;10.674;2024-02-15T16:07:23;12.50;99.90
72646;DHT22;60687;53.876;10.674;2024-02-15T16:17:30;12.50;99.90
72646;DHT22;60687;53.876;10.674;2024-02-15T16:27:47;12.50;99.90
72646;DHT22;60687;53.876;10.674;2024-02-15T16:37:59;12.50;99.90
72646;DHT22;60687;53.876;10.674;2024-02-15T16:48:07;12.40;99.90
72646;DHT22;60687;53.876;10.674;2024-02-15T16:58:16;12.40;99.90
72646;DHT22;60687;53.876;10.674;2024-02-15T17:08:26;12.40;99.90
72646;DHT22;60687;53.876;10.674;2024-02-15T17:29:40;12.40;99.90
72646;DHT22;60687;53.876;10.674;2024-02-15T17:40:14;12.30;99.90
72646;DHT22;60687;53.876;10.674;2024-02-15T17:50:45;12.30;99.90
72646;DHT22;60687;53.876;10.674;2024-02-15T18:01:10;12.30;99.90
72646;DHT22;60687;53.876;10.674;2024-02-15T18:11:46;12.30;99.90
72646;DHT22;60687;53.876;10.674;2024-02-15T18:44:30;12.30;99.90
72646;DHT22;60687;53.876;10.674;2024-02-15T18:54:58;12.20;99.90
72646;DHT22;60687;53.876;10.674;2024-02-15T19:05:14;12.20;99.90
72646;DHT22;60687;53.876;10.674;2024-02-15T19:15:38;12.20;99.90
72646;DHT22;60687;53.876;10.674;2024-02-15T19:26:23;12.20;99.90
72646;DHT22;60687;53.876;10.674;2024-02-15T19:37:07;12.20;99.90
72646;DHT22;60687;53.876;10.674;2024-02-15T19:47:56;12.20;99.90
72646;DHT22;60687;53.876;10.674;2024-02-15T19:58:51;12.10;99.90
72646;DHT22;60687;53.876;10.674;2024-02-15T20:09:18;12.10;99.90
72646;DHT22;60687;53.876;10.674;2024-02-15T20:30:40;12.10;99.90
72646;DHT22;60687;53.876;10.674;2024-02-15T20:41:31;12.10;99.90
72646;DHT22;60687;53.876;10.674;2024-02-15T20:52:45;12.10;99.90
72646;DHT22;60687;53.876;10.674;2024-02-15T21:03:39;12.10;99.90
72646;DHT22;60687;53.876;10.674;2024-02-15T21:26:15;12.00;99.90
72646;DHT22;60687;53.876;10.674;2024-02-15T21:36:52;12.00;99.90
72646;DHT22;60687;53.876;10.674;2024-02-15T21:47:56;12.00;99.90
72646;DHT22;60687;53.876;10.674;2024-02-15T22:20:23;11.90;99.90
72646;DHT22;60687;53.876;10.674;2024-02-15T22:30:39;11.90;99.90
72646;DHT22;60687;53.876;10.674;2024-02-15T22:41:05;11.80;99.90
72646;DHT22;60687;53.876;10.674;2024-02-15T22:51:28;11.80;99.90
72646;DHT22;60687;53.876;10.674;2024-02-15T23:01:39;11.80;99.90
72646;DHT22;60687;53.876;10.674;2024-02-15T23:11:48;11.80;99.90
72646;DHT22;60687;53.876;10.674;2024-02-15T23:21:56;11.80;99.90
72646;DHT22;60687;53.876;10.674;2024-02-15T23:32:18;11.70;99.90
72646;DHT22;60687;53.876;10.674;2024-02-15T23:42:26;11.80;99.90
72646;DHT22;60687;53.876;10.674;2024-02-15T23:52:39;11.70;99.90
